createdAt,value
2017-11-22T00:00:20.624Z,95.04
2017-11-22T00:01:26.630Z,95.37
2017-11-22T00:02:32.586Z,95.37
2017-11-22T00:03:39.005Z,95.53
2017-11-22T00:04:44.914Z,94.83
2017-11-22T00:05:51.029Z,95.01
2017-11-22T00:06:56.941Z,95.04
2017-11-22T00:08:03.104Z,95.04
2017-11-22T00:09:09.016Z,95.13
2017-11-22T00:10:15.191Z,95.06
2017-11-22T00:11:21.289Z,95.09
2017-11-22T00:12:28.359Z,95.05
2017-11-22T00:13:34.530Z,94.80
2017-11-22T00:14:42.853Z,94.87
2017-11-22T00:15:49.016Z,94.83
2017-11-22T00:16:55.111Z,94.55
2017-11-22T00:18:01.247Z,94.27
2017-11-22T00:19:07.358Z,94.38
2017-11-22T00:20:13.507Z,94.32
2017-11-22T00:21:19.606Z,94.33
2017-11-22T00:22:32.466Z,94.47
2017-11-22T00:23:38.567Z,94.65
2017-11-22T00:24:47.265Z,94.40
2017-11-22T00:25:53.427Z,94.55
2017-11-22T00:26:59.555Z,94.81
2017-11-22T00:28:05.796Z,94.63
2017-11-22T00:29:12.345Z,94.78
2017-11-22T00:30:18.559Z,94.71
2017-11-22T00:31:24.708Z,94.89
2017-11-22T00:32:31.048Z,94.86
2017-11-22T00:33:37.143Z,94.95
2017-11-22T00:34:44.160Z,95.10
2017-11-22T00:35:50.332Z,95.09
2017-11-22T00:36:56.448Z,94.66
2017-11-22T00:38:02.552Z,94.81
2017-11-22T00:39:10.111Z,94.57
2017-11-22T00:40:16.214Z,94.68
2017-11-22T00:41:22.354Z,94.49
2017-11-22T00:42:28.433Z,94.48
2017-11-22T00:43:34.557Z,94.55
2017-11-22T00:44:40.700Z,94.48
2017-11-22T00:45:46.645Z,94.34
2017-11-22T00:46:52.754Z,93.98
2017-11-22T00:47:58.964Z,94.14
2017-11-22T00:49:04.729Z,93.74
2017-11-22T00:50:10.997Z,93.71
2017-11-22T00:51:17.120Z,93.74
2017-11-22T00:52:23.249Z,93.46
2017-11-22T00:53:29.367Z,93.50
2017-11-22T00:54:35.559Z,93.73
2017-11-22T00:55:41.958Z,93.85
2017-11-22T00:56:48.073Z,93.53
2017-11-22T00:57:54.257Z,93.52
2017-11-22T00:59:00.374Z,93.37
2017-11-22T01:00:06.466Z,93.17
2017-11-22T01:01:12.440Z,93.15
2017-11-22T01:02:18.538Z,93.80
2017-11-22T01:03:24.644Z,93.68
2017-11-22T01:04:30.714Z,93.82
2017-11-22T01:05:36.626Z,93.47
2017-11-22T01:06:42.749Z,93.15
2017-11-22T01:07:48.887Z,93.29
2017-11-22T01:08:55.014Z,93.26
2017-11-22T01:10:01.134Z,92.53
2017-11-22T01:11:07.259Z,92.69
2017-11-22T01:12:13.435Z,92.42
2017-11-22T01:13:19.876Z,92.79
2017-11-22T01:14:25.988Z,92.70
2017-11-22T01:15:32.122Z,92.91
2017-11-22T01:16:38.226Z,93.09
2017-11-22T01:17:44.703Z,93.00
2017-11-22T01:18:50.832Z,92.56
2017-11-22T01:19:56.927Z,92.72
2017-11-22T01:21:03.247Z,92.75
2017-11-22T01:22:09.569Z,92.64
2017-11-22T01:23:15.702Z,92.72
2017-11-22T01:24:21.826Z,92.92
2017-11-22T01:25:27.972Z,93.19
2017-11-22T01:26:34.096Z,93.57
2017-11-22T01:27:40.206Z,93.71
2017-11-22T01:28:46.599Z,93.59
2017-11-22T01:29:52.717Z,93.54
2017-11-22T01:31:00.712Z,93.44
2017-11-22T01:32:06.796Z,93.44
2017-11-22T01:33:12.917Z,93.19
2017-11-22T01:34:18.714Z,93.14
2017-11-22T01:35:24.864Z,92.83
2017-11-22T01:36:33.167Z,93.04
2017-11-22T01:37:38.911Z,92.97
2017-11-22T01:38:45.014Z,92.76
2017-11-22T01:39:51.116Z,92.56
2017-11-22T01:40:57.222Z,92.72
2017-11-22T01:42:06.737Z,92.75
2017-11-22T01:43:12.875Z,92.11
2017-11-22T01:44:19.049Z,92.34
2017-11-22T01:45:24.880Z,92.57
2017-11-22T01:46:30.342Z,92.68
2017-11-22T01:47:35.788Z,92.67
2017-11-22T01:48:41.215Z,92.60
2017-11-22T01:49:46.616Z,92.66
2017-11-22T01:50:52.744Z,92.83
2017-11-22T01:51:58.651Z,92.61
2017-11-22T01:53:04.862Z,92.58
2017-11-22T01:54:11.012Z,92.62
2017-11-22T01:55:17.168Z,92.52
2017-11-22T01:56:23.321Z,92.07
2017-11-22T01:57:29.596Z,92.03
2017-11-22T01:58:35.786Z,91.62
2017-11-22T01:59:41.944Z,91.76
2017-11-22T02:00:54.374Z,91.66
2017-11-22T02:01:59.240Z,91.75
2017-11-22T02:03:16.801Z,91.38
2017-11-22T02:04:22.889Z,92.18
2017-11-22T02:05:28.991Z,92.15
2017-11-22T02:06:35.101Z,92.17
2017-11-22T02:07:41.214Z,91.69
2017-11-22T02:08:47.165Z,92.01
2017-11-22T02:09:53.259Z,91.47
2017-11-22T02:10:59.746Z,91.60
2017-11-22T02:12:05.873Z,91.59
2017-11-22T02:13:16.049Z,91.23
2017-11-22T02:14:22.159Z,91.15
2017-11-22T02:15:28.078Z,91.45
2017-11-22T02:16:34.210Z,91.48
2017-11-22T02:17:44.780Z,91.73
2017-11-22T02:18:51.828Z,91.67
2017-11-22T02:19:57.932Z,91.66
2017-11-22T02:21:04.063Z,91.29
2017-11-22T02:22:09.470Z,91.06
2017-11-22T02:23:15.588Z,91.10
2017-11-22T02:24:20.976Z,91.25
2017-11-22T02:25:28.026Z,91.42
2017-11-22T02:26:33.787Z,91.25
2017-11-22T02:27:39.880Z,91.68
2017-11-22T02:28:45.977Z,90.65
2017-11-22T02:29:52.085Z,91.02
2017-11-22T02:30:57.952Z,91.33
2017-11-22T02:32:03.450Z,90.80
2017-11-22T02:33:09.156Z,91.05
2017-11-22T02:34:14.868Z,90.97
2017-11-22T02:35:20.976Z,91.36
2017-11-22T02:36:26.727Z,90.59
2017-11-22T02:37:32.816Z,90.65
2017-11-22T02:38:38.923Z,90.25
2017-11-22T02:39:45.059Z,90.44
2017-11-22T02:40:51.284Z,90.91
2017-11-22T02:41:57.413Z,91.03
2017-11-22T02:43:03.523Z,90.96
2017-11-22T02:44:09.939Z,90.97
2017-11-22T02:45:15.999Z,90.41
2017-11-22T02:46:22.206Z,90.41
2017-11-22T02:47:27.943Z,90.06
2017-11-22T02:48:34.007Z,89.67
2017-11-22T02:49:39.681Z,89.38
2017-11-22T02:50:45.787Z,89.42
2017-11-22T02:51:53.732Z,88.80
2017-11-22T02:52:59.807Z,89.67
2017-11-22T02:54:09.895Z,89.59
2017-11-22T02:55:15.308Z,89.61
2017-11-22T02:56:21.137Z,89.95
2017-11-22T02:57:26.679Z,89.98
2017-11-22T02:58:32.785Z,89.87
2017-11-22T02:59:42.335Z,90.10
2017-11-22T03:00:48.127Z,90.02
2017-11-22T03:01:54.001Z,90.23
2017-11-22T03:02:59.716Z,89.72
2017-11-22T03:04:10.456Z,89.21
2017-11-22T03:05:16.562Z,89.17
2017-11-22T03:06:22.532Z,89.05
2017-11-22T03:07:28.061Z,89.14
2017-11-22T03:08:33.937Z,88.82
2017-11-22T03:09:40.020Z,88.73
2017-11-22T03:10:45.912Z,89.07
2017-11-22T03:11:52.042Z,88.77
2017-11-22T03:12:58.131Z,88.83
2017-11-22T03:14:03.868Z,89.11
2017-11-22T03:15:09.971Z,88.85
2017-11-22T03:16:16.116Z,89.72
2017-11-22T03:17:22.204Z,89.44
2017-11-22T03:18:28.319Z,89.39
2017-11-22T03:19:34.421Z,89.54
2017-11-22T03:20:44.159Z,89.56
2017-11-22T03:21:50.241Z,89.21
2017-11-22T03:22:56.339Z,89.08
2017-11-22T03:24:03.520Z,89.25
2017-11-22T03:25:09.367Z,88.98
2017-11-22T03:26:15.486Z,88.50
2017-11-22T03:27:21.565Z,88.83
2017-11-22T03:28:27.658Z,88.97
2017-11-22T03:29:33.776Z,89.79
2017-11-22T03:30:39.979Z,89.71
2017-11-22T03:31:46.058Z,89.61
2017-11-22T03:32:52.194Z,89.59
2017-11-22T03:33:58.239Z,89.65
2017-11-22T03:35:04.321Z,89.42
2017-11-22T03:36:09.684Z,89.24
2017-11-22T03:37:15.073Z,89.04
2017-11-22T03:38:20.932Z,89.23
2017-11-22T03:39:27.071Z,89.81
2017-11-22T03:40:32.516Z,89.46
2017-11-22T03:41:38.249Z,89.42
2017-11-22T03:42:46.511Z,89.81
2017-11-22T03:43:52.290Z,89.59
2017-11-22T03:44:58.080Z,89.41
2017-11-22T03:46:04.181Z,89.48
2017-11-22T03:47:12.767Z,89.30
2017-11-22T03:48:18.911Z,88.93
2017-11-22T03:49:25.027Z,89.57
2017-11-22T03:50:35.872Z,89.20
2017-11-22T03:51:47.335Z,89.31
2017-11-22T03:52:58.918Z,89.19
2017-11-22T03:54:04.781Z,89.16
2017-11-22T03:55:10.236Z,89.43
2017-11-22T03:56:16.317Z,89.50
2017-11-22T03:57:22.456Z,89.25
2017-11-22T03:58:27.841Z,89.12
2017-11-22T03:59:33.905Z,89.27
2017-11-22T04:00:41.679Z,88.83
2017-11-22T04:01:47.550Z,89.04
2017-11-22T04:02:59.032Z,88.84
2017-11-22T04:04:06.907Z,89.61
2017-11-22T04:05:13.045Z,89.18
2017-11-22T04:06:19.162Z,89.20
2017-11-22T04:07:25.258Z,89.49
2017-11-22T04:08:31.312Z,89.12
2017-11-22T04:09:37.457Z,88.93
2017-11-22T04:10:43.562Z,88.75
2017-11-22T04:11:49.607Z,88.78
2017-11-22T04:12:55.714Z,89.08
2017-11-22T04:14:01.781Z,88.72
2017-11-22T04:15:08.166Z,89.14
2017-11-22T04:16:14.270Z,89.40
2017-11-22T04:17:24.758Z,88.85
2017-11-22T04:18:30.841Z,88.46
2017-11-22T04:19:39.806Z,88.85
2017-11-22T04:20:45.975Z,88.55
2017-11-22T04:21:52.077Z,88.93
2017-11-22T04:22:58.151Z,89.14
2017-11-22T04:24:04.263Z,88.50
2017-11-22T04:25:10.321Z,88.47
2017-11-22T04:26:16.692Z,88.54
2017-11-22T04:27:22.789Z,88.19
2017-11-22T04:28:29.061Z,88.17
2017-11-22T04:29:36.005Z,88.49
2017-11-22T04:30:42.129Z,88.16
2017-11-22T04:31:48.282Z,88.30
2017-11-22T04:32:54.370Z,88.13
2017-11-22T04:34:00.622Z,88.51
2017-11-22T04:35:07.003Z,88.69
2017-11-22T04:36:13.131Z,88.11
2017-11-22T04:37:19.244Z,87.27
2017-11-22T04:38:25.315Z,87.67
2017-11-22T04:39:31.415Z,87.68
2017-11-22T04:40:37.551Z,87.91
2017-11-22T04:41:43.675Z,88.12
2017-11-22T04:42:49.818Z,88.21
2017-11-22T04:43:55.624Z,87.44
2017-11-22T04:45:01.379Z,87.19
2017-11-22T04:46:07.091Z,86.95
2017-11-22T04:47:12.850Z,87.62
2017-11-22T04:48:18.725Z,87.56
2017-11-22T04:49:25.184Z,87.55
2017-11-22T04:50:31.303Z,87.06
2017-11-22T04:51:37.345Z,87.66
2017-11-22T04:52:43.539Z,87.38
2017-11-22T04:53:49.580Z,87.28
2017-11-22T04:54:55.705Z,86.96
2017-11-22T04:56:01.616Z,87.32
2017-11-22T04:57:07.355Z,87.59
2017-11-22T04:58:13.465Z,87.45
2017-11-22T04:59:19.513Z,86.81
2017-11-22T05:00:24.906Z,86.61
2017-11-22T05:01:30.831Z,86.32
2017-11-22T05:02:36.564Z,85.93
2017-11-22T05:03:43.210Z,86.62
2017-11-22T05:04:49.318Z,86.89
2017-11-22T05:05:55.412Z,86.37
2017-11-22T05:07:01.475Z,86.55
2017-11-22T05:08:07.527Z,86.60
2017-11-22T05:09:13.627Z,86.92
2017-11-22T05:10:19.378Z,87.23
2017-11-22T05:11:25.491Z,87.53
2017-11-22T05:12:31.698Z,87.61
2017-11-22T05:13:37.858Z,87.89
2017-11-22T05:14:44.017Z,87.38
2017-11-22T05:15:51.867Z,87.46
2017-11-22T05:16:57.964Z,87.69
2017-11-22T05:18:04.048Z,87.27
2017-11-22T05:19:10.408Z,87.33
2017-11-22T05:20:16.536Z,87.45
2017-11-22T05:21:22.635Z,87.67
2017-11-22T05:22:28.728Z,87.11
2017-11-22T05:23:34.803Z,87.20
2017-11-22T05:24:40.997Z,87.06
2017-11-22T05:25:47.058Z,87.18
2017-11-22T05:26:58.251Z,87.51
2017-11-22T05:28:10.170Z,87.49
2017-11-22T05:29:16.290Z,87.74
2017-11-22T05:30:26.636Z,87.35
2017-11-22T05:31:32.762Z,87.10
2017-11-22T05:32:38.844Z,87.56
2017-11-22T05:33:44.976Z,87.39
2017-11-22T05:34:51.057Z,87.17
2017-11-22T05:35:57.181Z,87.39
2017-11-22T05:37:03.299Z,87.67
2017-11-22T05:38:09.365Z,87.41
2017-11-22T05:39:15.439Z,87.36
2017-11-22T05:40:21.489Z,86.83
2017-11-22T05:41:27.591Z,86.76
2017-11-22T05:42:40.477Z,87.63
2017-11-22T05:43:47.167Z,87.30
2017-11-22T05:44:53.275Z,87.62
2017-11-22T05:45:59.439Z,87.53
2017-11-22T05:47:06.193Z,87.68
2017-11-22T05:48:12.326Z,87.39
2017-11-22T05:49:18.396Z,87.23
2017-11-22T05:50:24.512Z,86.89
2017-11-22T05:51:30.620Z,86.73
2017-11-22T05:52:36.680Z,87.11
2017-11-22T05:53:42.783Z,87.35
2017-11-22T05:54:48.162Z,87.26
2017-11-22T05:55:53.599Z,87.36
2017-11-22T05:56:59.053Z,87.41
2017-11-22T05:58:04.557Z,87.58
2017-11-22T05:59:10.695Z,87.37
2017-11-22T06:00:16.457Z,87.58
2017-11-22T06:01:22.339Z,87.37
2017-11-22T06:02:28.475Z,87.48
2017-11-22T06:03:34.463Z,87.01
2017-11-22T06:04:40.566Z,87.42
2017-11-22T06:05:46.755Z,87.67
2017-11-22T06:06:52.846Z,87.67
2017-11-22T06:08:02.898Z,87.44
2017-11-22T06:09:10.017Z,87.46
2017-11-22T06:10:16.161Z,87.30
2017-11-22T06:11:22.340Z,87.54
2017-11-22T06:12:28.459Z,86.82
2017-11-22T06:13:34.556Z,86.83
2017-11-22T06:14:40.729Z,87.35
2017-11-22T06:15:46.849Z,87.00
2017-11-22T06:16:53.000Z,87.18
2017-11-22T06:17:59.042Z,86.89
2017-11-22T06:19:05.121Z,86.77
2017-11-22T06:20:11.285Z,86.23
2017-11-22T06:21:17.384Z,86.69
2017-11-22T06:22:23.496Z,87.25
2017-11-22T06:23:29.546Z,87.45
2017-11-22T06:24:35.604Z,87.30
2017-11-22T06:25:41.682Z,86.92
2017-11-22T06:26:48.048Z,87.04
2017-11-22T06:27:54.155Z,86.80
2017-11-22T06:29:01.509Z,86.78
2017-11-22T06:30:12.948Z,86.75
2017-11-22T06:31:19.031Z,86.99
2017-11-22T06:32:25.184Z,87.20
2017-11-22T06:33:31.090Z,87.38
2017-11-22T06:34:37.163Z,87.91
2017-11-22T06:35:43.269Z,87.12
2017-11-22T06:36:49.351Z,87.51
2017-11-22T06:37:55.503Z,87.77
2017-11-22T06:39:06.413Z,87.73
2017-11-22T06:40:12.491Z,88.06
2017-11-22T06:41:18.571Z,87.51
2017-11-22T06:42:24.679Z,87.40
2017-11-22T06:43:30.791Z,87.46
2017-11-22T06:44:36.857Z,87.03
2017-11-22T06:45:42.967Z,86.91
2017-11-22T06:46:49.330Z,87.08
2017-11-22T06:47:55.462Z,87.01
2017-11-22T06:49:01.533Z,87.13
2017-11-22T06:50:07.625Z,86.86
2017-11-22T06:51:13.878Z,86.78
2017-11-22T06:52:19.965Z,86.93
2017-11-22T06:53:26.030Z,87.05
2017-11-22T06:54:34.913Z,86.99
2017-11-22T06:55:40.985Z,86.91
2017-11-22T06:56:48.776Z,86.55
2017-11-22T06:57:54.881Z,86.68
2017-11-22T06:59:01.001Z,86.92
2017-11-22T07:00:06.809Z,86.90
2017-11-22T07:01:18.514Z,86.58
2017-11-22T07:02:30.084Z,86.39
2017-11-22T07:03:41.695Z,86.56
2017-11-22T07:04:47.815Z,86.57
2017-11-22T07:05:53.915Z,86.33
2017-11-22T07:06:59.997Z,86.59
2017-11-22T07:08:06.102Z,86.73
2017-11-22T07:09:12.223Z,86.35
2017-11-22T07:10:26.655Z,86.47
2017-11-22T07:11:33.661Z,86.33
2017-11-22T07:12:39.723Z,86.31
2017-11-22T07:13:45.843Z,86.15
2017-11-22T07:14:51.943Z,85.90
2017-11-22T07:15:57.998Z,85.67
2017-11-22T07:17:09.442Z,85.74
2017-11-22T07:18:15.475Z,85.87
2017-11-22T07:19:21.554Z,86.05
2017-11-22T07:20:27.745Z,86.22
2017-11-22T07:21:33.858Z,85.76
2017-11-22T07:22:39.636Z,85.70
2017-11-22T07:23:45.701Z,85.70
2017-11-22T07:24:51.817Z,85.52
2017-11-22T07:25:57.718Z,85.62
2017-11-22T07:27:03.822Z,85.66
2017-11-22T07:28:09.578Z,85.31
2017-11-22T07:29:15.731Z,85.70
2017-11-22T07:30:21.884Z,85.93
2017-11-22T07:31:30.275Z,85.60
2017-11-22T07:32:36.385Z,85.82
2017-11-22T07:33:42.623Z,85.39
2017-11-22T07:34:48.678Z,85.82
2017-11-22T07:36:00.129Z,85.59
2017-11-22T07:37:11.526Z,85.80
2017-11-22T07:38:17.954Z,86.20
2017-11-22T07:39:24.406Z,86.02
2017-11-22T07:40:30.247Z,85.83
2017-11-22T07:41:36.150Z,85.86
2017-11-22T07:42:42.082Z,85.69
2017-11-22T07:43:48.173Z,85.32
2017-11-22T07:44:54.312Z,85.28
2017-11-22T07:46:11.860Z,85.17
2017-11-22T07:47:19.733Z,84.97
2017-11-22T07:48:25.841Z,85.27
2017-11-22T07:49:32.219Z,84.84
2017-11-22T07:50:38.360Z,85.00
2017-11-22T07:51:49.824Z,85.02
2017-11-22T07:52:55.938Z,85.22
2017-11-22T07:54:02.085Z,85.34
2017-11-22T07:55:08.256Z,84.91
2017-11-22T07:56:16.295Z,85.01
2017-11-22T07:57:27.113Z,84.73
2017-11-22T07:58:36.469Z,84.83
2017-11-22T07:59:42.527Z,85.09
2017-11-22T08:00:48.671Z,85.20
2017-11-22T08:01:54.425Z,85.42
2017-11-22T08:03:05.805Z,85.53
2017-11-22T08:04:17.564Z,85.36
2017-11-22T08:05:23.424Z,85.55
2017-11-22T08:06:29.185Z,85.72
2017-11-22T08:07:35.304Z,85.30
2017-11-22T08:08:41.406Z,85.14
2017-11-22T08:09:47.514Z,85.15
2017-11-22T08:10:53.602Z,85.19
2017-11-22T08:11:59.671Z,85.05
2017-11-22T08:13:10.696Z,85.09
2017-11-22T08:14:16.811Z,85.03
2017-11-22T08:15:22.929Z,85.52
2017-11-22T08:16:29.009Z,85.39
2017-11-22T08:17:35.104Z,85.44
2017-11-22T08:18:41.167Z,85.50
2017-11-22T08:19:49.076Z,85.76
2017-11-22T08:20:55.192Z,85.89
2017-11-22T08:22:01.288Z,85.84
2017-11-22T08:23:07.439Z,85.72
2017-11-22T08:24:13.537Z,85.74
2017-11-22T08:25:22.614Z,85.45
2017-11-22T08:26:28.694Z,85.89
2017-11-22T08:27:34.783Z,85.75
2017-11-22T08:28:44.849Z,85.96
2017-11-22T08:29:54.672Z,86.10
2017-11-22T08:31:02.690Z,86.36
2017-11-22T08:32:08.834Z,86.72
2017-11-22T08:33:14.925Z,86.89
2017-11-22T08:34:21.028Z,87.16
2017-11-22T08:35:30.286Z,87.03
2017-11-22T08:36:36.389Z,87.01
2017-11-22T08:37:42.477Z,87.31
2017-11-22T08:38:48.582Z,87.24
2017-11-22T08:39:54.690Z,87.66
2017-11-22T08:41:00.780Z,87.54
2017-11-22T08:42:06.516Z,88.07
2017-11-22T08:43:18.072Z,88.47
2017-11-22T08:44:24.312Z,88.35
2017-11-22T08:45:30.399Z,88.21
2017-11-22T08:46:36.554Z,87.95
2017-11-22T08:47:42.698Z,87.84
2017-11-22T08:48:48.828Z,88.07
2017-11-22T08:49:54.886Z,88.22
2017-11-22T08:51:00.961Z,88.19
2017-11-22T08:52:07.065Z,88.42
2017-11-22T08:53:13.154Z,88.75
2017-11-22T08:54:25.377Z,89.12
2017-11-22T08:55:44.629Z,89.94
2017-11-22T08:56:56.074Z,90.04
2017-11-22T08:58:07.546Z,90.25
2017-11-22T08:59:13.660Z,90.38
2017-11-22T09:00:19.756Z,90.61
2017-11-22T09:01:25.808Z,90.68
2017-11-22T09:02:31.937Z,91.53
2017-11-22T09:03:43.422Z,91.93
2017-11-22T09:04:49.510Z,92.03
2017-11-22T09:06:00.998Z,92.17
2017-11-22T09:07:13.286Z,92.20
2017-11-22T09:08:19.338Z,92.18
2017-11-22T09:09:25.488Z,92.12
2017-11-22T09:10:31.592Z,92.90
2017-11-22T09:11:48.427Z,92.94
2017-11-22T09:12:54.517Z,92.84
2017-11-22T09:14:00.589Z,92.71
2017-11-22T09:15:06.573Z,92.43
2017-11-22T09:16:13.165Z,92.35
2017-11-22T09:17:20.004Z,92.61
2017-11-22T09:18:35.307Z,92.64
2017-11-22T09:19:41.401Z,92.64
2017-11-22T09:20:47.181Z,92.65
2017-11-22T09:21:53.258Z,92.88
2017-11-22T09:22:59.403Z,93.05
2017-11-22T09:24:11.291Z,93.20
2017-11-22T09:25:17.346Z,93.77
2017-11-22T09:26:23.400Z,94.34
2017-11-22T09:27:34.910Z,94.26
2017-11-22T09:28:41.420Z,94.27
2017-11-22T09:30:01.891Z,94.73
2017-11-22T09:31:13.427Z,94.84
2017-11-22T09:32:24.844Z,94.71
2017-11-22T09:33:30.949Z,94.96
2017-11-22T09:34:42.088Z,95.46
2017-11-22T09:35:48.200Z,95.22
2017-11-22T09:36:54.303Z,94.84
2017-11-22T09:38:00.415Z,94.61
2017-11-22T09:39:06.242Z,94.73
2017-11-22T09:40:12.350Z,94.54
2017-11-22T09:41:18.429Z,94.46
2017-11-22T09:42:24.353Z,94.20
2017-11-22T09:43:30.460Z,93.93
2017-11-22T09:44:36.568Z,93.63
2017-11-22T09:45:42.660Z,93.36
2017-11-22T09:46:48.812Z,93.09
2017-11-22T09:47:55.072Z,92.75
2017-11-22T09:49:01.134Z,92.78
2017-11-22T09:50:07.251Z,92.68
2017-11-22T09:51:14.229Z,92.42
2017-11-22T09:52:20.357Z,92.47
2017-11-22T09:53:26.302Z,92.20
2017-11-22T09:54:32.384Z,91.77
2017-11-22T09:55:38.471Z,91.15
2017-11-22T09:56:44.536Z,91.12
2017-11-22T09:57:55.053Z,91.24
2017-11-22T09:59:01.308Z,91.19
2017-11-22T10:00:07.441Z,91.12
2017-11-22T10:01:13.343Z,91.00
2017-11-22T10:02:19.204Z,90.83
2017-11-22T10:03:25.182Z,90.59
2017-11-22T10:04:31.327Z,90.37
2017-11-22T10:05:37.416Z,90.16
2017-11-22T10:06:43.516Z,89.35
2017-11-22T10:07:49.603Z,88.95
2017-11-22T10:08:55.728Z,89.01
2017-11-22T10:10:01.820Z,88.93
2017-11-22T10:11:07.909Z,88.84
2017-11-22T10:12:14.135Z,88.60
2017-11-22T10:13:20.372Z,88.10
2017-11-22T10:14:26.470Z,88.06
2017-11-22T10:15:32.563Z,87.85
2017-11-22T10:16:38.519Z,87.91
2017-11-22T10:17:44.414Z,87.20
2017-11-22T10:18:50.420Z,86.73
2017-11-22T10:20:04.695Z,86.85
2017-11-22T10:21:13.492Z,86.64
2017-11-22T10:22:19.431Z,86.71
2017-11-22T10:23:27.250Z,86.67
2017-11-22T10:24:33.138Z,86.42
2017-11-22T10:25:39.019Z,86.71
2017-11-22T10:26:49.659Z,86.67
2017-11-22T10:28:01.295Z,86.60
2017-11-22T10:29:11.257Z,86.08
2017-11-22T10:30:17.188Z,86.05
2017-11-22T10:31:27.148Z,85.90
2017-11-22T10:32:33.081Z,85.79
2017-11-22T10:33:39.171Z,85.71
2017-11-22T10:34:44.919Z,85.69
2017-11-22T10:35:50.319Z,85.70
2017-11-22T10:36:56.216Z,85.79
2017-11-22T10:38:02.294Z,85.67
2017-11-22T10:39:08.450Z,85.56
2017-11-22T10:40:14.238Z,85.42
2017-11-22T10:41:20.291Z,85.37
2017-11-22T10:42:26.383Z,85.20
2017-11-22T10:43:32.447Z,85.31
2017-11-22T10:44:38.546Z,84.92
2017-11-22T10:45:44.001Z,84.80
2017-11-22T10:46:50.112Z,84.41
2017-11-22T10:47:56.307Z,84.15
2017-11-22T10:49:02.389Z,84.14
2017-11-22T10:50:08.537Z,84.18
2017-11-22T10:51:20.870Z,84.21
2017-11-22T10:52:26.925Z,84.37
2017-11-22T10:53:33.052Z,84.18
2017-11-22T10:54:39.259Z,84.31
2017-11-22T10:55:44.474Z,83.88
2017-11-22T10:56:49.707Z,83.27
2017-11-22T10:57:55.200Z,83.48
2017-11-22T10:59:00.638Z,83.59
2017-11-22T11:00:06.746Z,83.05
2017-11-22T11:01:12.488Z,83.08
2017-11-22T11:02:18.566Z,83.19
2017-11-22T11:03:24.328Z,83.19
2017-11-22T11:04:30.477Z,82.73
2017-11-22T11:05:36.533Z,82.72
2017-11-22T11:06:42.323Z,82.68
2017-11-22T11:07:47.760Z,82.60
2017-11-22T11:08:53.841Z,82.27
2017-11-22T11:10:04.062Z,82.15
2017-11-22T11:11:10.131Z,82.69
2017-11-22T11:12:17.106Z,82.46
2017-11-22T11:13:23.203Z,82.42
2017-11-22T11:14:29.257Z,82.29
2017-11-22T11:15:35.376Z,82.30
2017-11-22T11:16:41.475Z,82.74
2017-11-22T11:17:47.560Z,82.74
2017-11-22T11:18:53.899Z,82.51
2017-11-22T11:19:59.998Z,82.16
2017-11-22T11:21:06.089Z,81.46
2017-11-22T11:22:12.171Z,81.67
2017-11-22T11:23:18.328Z,81.62
2017-11-22T11:24:24.303Z,82.02
2017-11-22T11:25:32.274Z,81.37
2017-11-22T11:26:38.338Z,81.52
2017-11-22T11:27:44.519Z,81.05
2017-11-22T11:28:50.608Z,80.95
2017-11-22T11:29:56.692Z,80.78
2017-11-22T11:31:02.430Z,80.85
2017-11-22T11:32:08.631Z,80.59
2017-11-22T11:33:15.037Z,80.74
2017-11-22T11:34:20.896Z,80.57
2017-11-22T11:35:38.324Z,80.33
2017-11-22T11:36:43.475Z,79.70
2017-11-22T11:37:48.850Z,79.87
2017-11-22T11:38:54.257Z,80.12
2017-11-22T11:40:00.021Z,79.72
2017-11-22T11:41:05.752Z,80.03
2017-11-22T11:42:11.588Z,79.30
2017-11-22T11:43:17.294Z,79.11
2017-11-22T11:44:22.773Z,79.17
2017-11-22T11:45:28.174Z,79.36
2017-11-22T11:46:33.908Z,79.72
2017-11-22T11:47:40.049Z,79.55
2017-11-22T11:48:49.090Z,79.57
2017-11-22T11:49:59.769Z,79.56
2017-11-22T11:51:05.865Z,79.46
2017-11-22T11:52:11.649Z,79.62
2017-11-22T11:53:17.403Z,79.21
2017-11-22T11:54:23.543Z,79.19
2017-11-22T11:55:29.683Z,79.18
2017-11-22T11:56:35.738Z,78.34
2017-11-22T11:57:41.808Z,78.61
2017-11-22T11:58:47.887Z,78.55
2017-11-22T11:59:53.959Z,78.76
2017-11-22T12:00:59.428Z,78.22
2017-11-22T12:02:04.832Z,78.32
2017-11-22T12:03:10.700Z,78.34
2017-11-22T12:04:16.769Z,78.37
2017-11-22T12:05:22.884Z,78.75
2017-11-22T12:06:28.987Z,79.06
2017-11-22T12:07:35.090Z,79.00
2017-11-22T12:08:45.937Z,79.25
2017-11-22T12:09:52.096Z,79.45
2017-11-22T12:10:58.186Z,79.45
2017-11-22T12:12:07.275Z,79.28
2017-11-22T12:13:13.343Z,79.18
2017-11-22T12:14:19.718Z,78.95
2017-11-22T12:15:25.778Z,78.93
2017-11-22T12:16:31.841Z,78.58
2017-11-22T12:17:37.973Z,78.35
2017-11-22T12:18:43.743Z,78.58
2017-11-22T12:19:49.961Z,78.63
2017-11-22T12:21:00.868Z,78.70
2017-11-22T12:22:14.131Z,78.03
2017-11-22T12:23:25.223Z,78.57
2017-11-22T12:24:39.179Z,78.52
2017-11-22T12:25:46.420Z,78.36
2017-11-22T12:26:52.561Z,78.02
2017-11-22T12:27:58.825Z,78.29
2017-11-22T12:29:04.926Z,78.54
2017-11-22T12:30:11.007Z,78.90
2017-11-22T12:31:17.115Z,78.41
2017-11-22T12:32:23.207Z,77.89
2017-11-22T12:33:29.368Z,77.66
2017-11-22T12:34:35.282Z,77.45
2017-11-22T12:35:41.323Z,77.80
2017-11-22T12:36:47.396Z,77.94
2017-11-22T12:37:53.474Z,77.99
2017-11-22T12:38:59.680Z,77.69
2017-11-22T12:40:05.797Z,77.76
2017-11-22T12:41:11.883Z,77.75
2017-11-22T12:42:17.942Z,77.79
2017-11-22T12:43:24.008Z,78.21
2017-11-22T12:44:30.094Z,78.51
2017-11-22T12:45:37.683Z,78.20
2017-11-22T12:46:46.811Z,78.09
2017-11-22T12:47:52.882Z,77.93
2017-11-22T12:48:59.000Z,78.06
2017-11-22T12:50:05.086Z,77.94
2017-11-22T12:51:10.881Z,77.60
2017-11-22T12:52:17.270Z,77.23
2017-11-22T12:53:23.376Z,77.44
2017-11-22T12:54:32.179Z,77.42
2017-11-22T12:55:38.331Z,77.35
2017-11-22T12:56:44.411Z,77.23
2017-11-22T12:57:54.442Z,77.44
2017-11-22T12:59:00.689Z,77.52
2017-11-22T13:00:06.416Z,77.42
2017-11-22T13:01:12.402Z,77.73
2017-11-22T13:02:18.475Z,77.30
2017-11-22T13:03:28.547Z,77.45
2017-11-22T13:04:34.244Z,77.26
2017-11-22T13:05:40.316Z,77.29
2017-11-22T13:06:55.596Z,76.98
2017-11-22T13:08:05.553Z,77.11
2017-11-22T13:09:11.322Z,76.43
2017-11-22T13:10:20.510Z,76.44
2017-11-22T13:11:41.285Z,76.23
2017-11-22T13:12:47.002Z,76.45
2017-11-22T13:13:52.728Z,77.06
2017-11-22T13:14:58.864Z,76.86
2017-11-22T13:16:04.627Z,77.18
2017-11-22T13:17:10.786Z,77.11
2017-11-22T13:18:16.875Z,76.73
2017-11-22T13:19:23.124Z,76.95
2017-11-22T13:20:29.230Z,77.20
2017-11-22T13:21:38.949Z,77.42
2017-11-22T13:22:45.218Z,77.54
2017-11-22T13:23:51.294Z,77.50
2017-11-22T13:24:57.455Z,77.59
2017-11-22T13:26:03.195Z,77.73
2017-11-22T13:27:09.475Z,77.89
2017-11-22T13:28:15.702Z,78.16
2017-11-22T13:29:21.810Z,78.33
2017-11-22T13:30:27.910Z,78.50
2017-11-22T13:31:33.655Z,78.69
2017-11-22T13:32:40.647Z,78.38
2017-11-22T13:33:46.573Z,78.32
2017-11-22T13:34:55.563Z,78.55
2017-11-22T13:36:01.379Z,78.60
2017-11-22T13:37:06.632Z,78.78
2017-11-22T13:38:12.152Z,78.65
2017-11-22T13:39:20.052Z,78.56
2017-11-22T13:40:25.297Z,78.48
2017-11-22T13:41:30.320Z,78.32
2017-11-22T13:42:36.202Z,78.38
2017-11-22T13:43:41.647Z,78.29
2017-11-22T13:44:47.369Z,78.37
2017-11-22T13:45:52.785Z,78.09
2017-11-22T13:46:58.994Z,78.13
2017-11-22T13:48:05.970Z,78.36
2017-11-22T13:49:13.410Z,78.20
2017-11-22T13:50:19.287Z,78.05
2017-11-22T13:51:25.035Z,78.06
2017-11-22T13:52:30.865Z,77.98
2017-11-22T13:53:36.981Z,77.85
2017-11-22T13:54:42.568Z,78.13
2017-11-22T13:55:48.089Z,78.18
2017-11-22T13:56:53.867Z,77.97
2017-11-22T13:57:59.318Z,78.03
2017-11-22T13:59:04.912Z,77.58
2017-11-22T14:00:10.334Z,77.73
2017-11-22T14:01:15.613Z,77.71
2017-11-22T14:02:21.128Z,77.69
2017-11-22T14:03:29.428Z,77.43
2017-11-22T14:04:34.863Z,77.55
2017-11-22T14:05:40.490Z,77.28
2017-11-22T14:06:45.900Z,77.12
2017-11-22T14:07:51.275Z,77.42
2017-11-22T14:08:57.782Z,77.00
2017-11-22T14:10:04.862Z,77.21
2017-11-22T14:11:10.774Z,77.50
2017-11-22T14:12:16.003Z,77.69
2017-11-22T14:13:21.235Z,77.83
2017-11-22T14:14:26.450Z,77.51
2017-11-22T14:15:31.848Z,77.88
2017-11-22T14:16:37.676Z,78.07
2017-11-22T14:17:43.087Z,78.01
2017-11-22T14:18:51.573Z,78.00